Time;durP1;ratioP1;P1;durP2;ratioP2;P2;SDS_P1;SDS_P2;PMS_P1;PMS_P2;Temp;Humidity;BMP_temperature;BMP_pressure;BME280_temperature;BME280_humidity;BME280_pressure;Samples;Min_cycle;Max_cycle;Signal;HPM_P1;HPM_P2
2024/02/14 00:01:53;;;;;;;7.83;7.37;;;10.10;16.40;;;;;;5057896;28;20982;-79
2024/02/14 00:04:18;;;;;;;7.77;7.27;;;10.00;16.10;;;;;;5057307;28;20194;-79
2024/02/14 00:06:45;;;;;;;8.30;7.80;;;10.00;16.00;;;;;;5056246;28;20676;-80
2024/02/14 00:09:11;;;;;;;8.17;7.67;;;10.00;16.20;;;;;;5056877;28;20556;-80
2024/02/14 00:11:37;;;;;;;7.83;7.30;;;10.00;16.10;;;;;;5059166;28;20423;-80
2024/02/14 00:14:02;;;;;;;8.47;7.97;;;10.10;16.00;;;;;;5057876;28;20995;-79
2024/02/14 00:16:30;;;;;;;8.37;7.97;;;10.10;15.90;;;;;;5057074;28;20761;-80
2024/02/14 00:18:56;;;;;;;8.00;7.53;;;10.10;15.90;;;;;;5057471;28;20213;-81
2024/02/14 00:21:30;;;;;;;8.33;7.93;;;10.10;15.80;;;;;;5057944;28;20445;-81
2024/02/14 00:24:03;;;;;;;8.60;8.10;;;10.10;16.00;;;;;;5058193;28;20415;-81
2024/02/14 00:26:28;;;;;;;8.30;7.60;;;10.10;15.80;;;;;;5057416;28;20438;-81
2024/02/14 00:28:54;;;;;;;8.30;7.80;;;10.00;15.90;;;;;;5061693;28;20493;-81
2024/02/14 00:31:20;;;;;;;7.70;7.20;;;10.00;15.80;;;;;;5061590;28;20184;-81
2024/02/14 00:33:46;;;;;;;7.73;7.33;;;9.90;16.90;;;;;;5057515;28;20219;-80
2024/02/14 00:36:12;;;;;;;8.33;7.80;;;9.90;17.20;;;;;;5062518;28;20469;-80
2024/02/14 00:38:37;;;;;;;7.60;7.17;;;9.90;17.20;;;;;;5061823;28;20179;-80
2024/02/14 00:41:03;;;;;;;8.20;7.60;;;10.00;16.30;;;;;;5057654;28;20179;-80
2024/02/14 00:43:28;;;;;;;8.97;8.37;;;10.00;16.10;;;;;;5057043;28;20593;-80
2024/02/14 00:45:56;;;;;;;7.73;7.20;;;10.10;16.00;;;;;;5053643;28;20212;-81
2024/02/14 00:48:24;;;;;;;8.80;8.20;;;10.10;15.90;;;;;;5055799;28;20225;-81
2024/02/14 00:50:52;;;;;;;8.37;7.77;;;10.20;15.60;;;;;;5056811;28;20410;-81
2024/02/14 00:53:17;;;;;;;8.43;7.93;;;10.20;15.80;;;;;;5054202;28;20488;-80
2024/02/14 00:55:43;;;;;;;8.13;7.73;;;10.00;15.40;;;;;;5056679;28;20442;-79
2024/02/14 00:58:10;;;;;;;8.53;7.20;;;9.80;17.40;;;;;;5054236;28;20734;-80
2024/02/14 01:00:43;;;;;;;8.33;7.63;;;9.70;17.20;;;;;;5054633;28;20184;-80
2024/02/14 01:03:15;;;;;;;8.60;8.00;;;9.60;17.50;;;;;;5054634;28;20418;-80
2024/02/14 01:05:49;;;;;;;7.50;7.10;;;9.50;17.90;;;;;;5054661;28;20922;-80
2024/02/14 01:08:50;;;;;;;8.00;7.53;;;9.20;18.80;;;;;;5055116;28;20414;-80
2024/02/14 01:11:41;;;;;;;8.43;7.93;;;9.20;19.80;;;;;;5055405;28;20419;-79
2024/02/14 01:14:12;;;;;;;7.60;7.10;;;9.40;20.80;;;;;;5011316;28;20439;-80
2024/02/14 01:16:49;;;;;;;8.20;7.70;;;9.50;20.60;;;;;;4973369;28;20487;-80
2024/02/14 01:19:19;;;;;;;7.93;7.50;;;9.60;21.60;;;;;;4996939;28;20428;-80
2024/02/14 01:21:48;;;;;;;8.70;7.93;;;9.70;22.10;;;;;;4981860;28;20422;-80
2024/02/14 01:24:16;;;;;;;8.37;7.67;;;9.70;22.60;;;;;;4989313;28;20446;-79
2024/02/14 01:26:55;;;;;;;8.30;7.83;;;9.80;21.90;;;;;;4989398;28;20451;-80
2024/02/14 01:29:21;;;;;;;8.90;8.50;;;9.90;22.00;;;;;;5032692;28;20485;-81
2024/02/14 01:31:50;;;;;;;8.20;7.77;;;9.90;22.40;;;;;;5054687;28;20422;-81
2024/02/14 01:34:18;;;;;;;8.20;7.70;;;9.90;22.80;;;;;;5038881;28;20515;-81
2024/02/14 01:36:46;;;;;;;7.87;7.47;;;10.00;22.30;;;;;;5028803;28;20458;-81
2024/02/14 01:39:13;;;;;;;7.40;7.10;;;10.10;22.20;;;;;;5054264;28;20476;-81
2024/02/14 01:41:52;;;;;;;8.50;8.00;;;10.10;22.50;;;;;;5054313;28;20936;-80
2024/02/14 01:44:20;;;;;;;9.13;8.63;;;10.20;21.90;;;;;;5053632;28;20418;-80
2024/02/14 01:46:48;;;;;;;8.33;7.83;;;10.20;21.20;;;;;;5046596;28;20450;-79
2024/02/14 01:49:16;;;;;;;8.40;7.70;;;10.20;21.40;;;;;;5054558;28;20421;-80
2024/02/14 01:51:44;;;;;;;8.43;8.03;;;10.30;21.10;;;;;;5053543;28;20421;-80
2024/02/14 01:54:11;;;;;;;7.50;7.10;;;10.30;20.70;;;;;;5056998;28;20423;-79
2024/02/14 01:56:44;;;;;;;7.97;7.57;;;10.30;20.90;;;;;;5058752;28;20454;-80
2024/02/14 01:59:14;;;;;;;7.47;7.17;;;10.30;21.40;;;;;;5057064;28;20422;-79
2024/02/14 02:01:48;;;;;;;8.60;8.07;;;10.10;22.70;;;;;;5050499;28;20861;-79
2024/02/14 02:04:21;;;;;;;8.77;8.37;;;9.90;23.40;;;;;;5057417;28;20414;-80
2024/02/14 02:07:10;;;;;;;9.00;8.30;;;9.70;23.60;;;;;;5059320;28;20802;-80
2024/02/14 02:09:45;;;;;;;8.37;7.87;;;9.50;23.80;;;;;;5057300;28;20430;-80
2024/02/14 02:12:31;;;;;;;8.60;8.00;;;9.50;24.00;;;;;;5087727;28;20439;-80
2024/02/14 02:14:57;;;;;;;8.43;7.90;;;9.50;23.60;;;;;;5061720;28;20513;-80
2024/02/14 02:17:24;;;;;;;9.33;8.73;;;9.40;23.50;;;;;;5056951;28;20208;-79
2024/02/14 02:19:49;;;;;;;9.50;8.90;;;9.30;23.80;;;;;;5057586;28;20777;-80
2024/02/14 02:22:17;;;;;;;8.53;8.10;;;9.10;23.90;;;;;;5056901;28;20454;-80
2024/02/14 02:24:47;;;;;;;9.00;8.40;;;9.00;24.50;;;;;;5049103;28;20213;-80
2024/02/14 02:27:16;;;;;;;8.40;8.00;;;8.80;25.00;;;;;;5056381;28;20545;-80
2024/02/14 02:29:42;;;;;;;7.80;7.40;;;8.80;25.20;;;;;;5056390;28;20941;-81
2024/02/14 02:32:09;;;;;;;7.83;7.33;;;8.70;25.50;;;;;;5056325;28;20414;-79
2024/02/14 02:34:38;;;;;;;8.83;8.33;;;8.90;25.50;;;;;;5057490;28;20824;-80
2024/02/14 02:37:07;;;;;;;8.40;8.00;;;8.90;25.70;;;;;;5060826;28;20470;-81
2024/02/14 02:39:33;;;;;;;9.47;8.97;;;8.90;25.20;;;;;;5046851;28;20564;-81
2024/02/14 02:41:59;;;;;;;8.70;8.10;;;8.70;24.80;;;;;;5059322;28;20417;-80
2024/02/14 02:44:25;;;;;;;9.43;8.63;;;8.80;24.90;;;;;;5056894;28;20418;-80
2024/02/14 02:46:51;;;;;;;9.30;8.90;;;8.70;24.40;;;;;;5057244;28;20288;-80
2024/02/14 02:49:18;;;;;;;9.00;8.30;;;8.80;24.80;;;;;;5056262;28;20767;-81
2024/02/14 02:51:44;;;;;;;8.50;7.90;;;8.90;25.10;;;;;;5060008;28;20184;-79
2024/02/14 02:54:12;;;;;;;8.47;8.00;;;9.00;23.90;;;;;;5058341;28;20449;-80
2024/02/14 02:56:37;;;;;;;8.80;8.30;;;9.10;24.20;;;;;;5040655;28;20526;-81
2024/02/14 02:59:03;;;;;;;8.10;7.60;;;9.10;23.40;;;;;;5056351;28;20461;-81
2024/02/14 03:01:38;;;;;;;9.10;8.50;;;9.10;23.40;;;;;;5057027;28;20283;-81
2024/02/14 03:04:03;;;;;;;8.93;8.43;;;9.10;23.80;;;;;;5056901;28;20198;-80
2024/02/14 03:06:30;;;;;;;8.97;8.47;;;9.20;23.70;;;;;;5058251;28;20430;-81
2024/02/14 03:08:57;;;;;;;9.93;9.40;;;9.40;23.50;;;;;;5056931;28;20184;-79
2024/02/14 03:14:44;;;;;;;9.50;8.90;;;9.60;23.10;;;;;;5057327;28;20491;-81
2024/02/14 03:17:10;;;;;;;9.77;9.17;;;9.70;22.50;;;;;;5056153;28;20485;-80
2024/02/14 03:19:38;;;;;;;9.77;9.17;;;9.80;22.30;;;;;;5056638;28;20187;-81
2024/02/14 03:22:08;;;;;;;8.97;8.47;;;9.70;22.30;;;;;;5056945;28;20659;-80
2024/02/14 03:24:36;;;;;;;9.43;8.93;;;9.80;21.60;;;;;;5056332;28;20454;-80
2024/02/14 03:27:04;;;;;;;9.40;8.90;;;10.00;20.80;;;;;;5056460;28;20450;-81
2024/02/14 03:29:29;;;;;;;9.00;8.60;;;9.90;21.60;;;;;;5055911;28;20484;-81
2024/02/14 03:31:58;;;;;;;9.53;8.83;;;9.70;22.40;;;;;;5056437;28;20430;-81
2024/02/14 03:34:25;;;;;;;9.17;8.67;;;9.60;22.00;;;;;;5056408;28;20184;-80
2024/02/14 03:36:50;;;;;;;9.13;8.63;;;9.60;23.00;;;;;;5056481;28;20466;-80
2024/02/14 03:39:17;;;;;;;9.37;8.90;;;9.60;22.70;;;;;;5056116;28;20499;-81
2024/02/14 03:41:42;;;;;;;10.17;9.67;;;9.60;22.90;;;;;;5057125;28;20229;-79
2024/02/14 03:44:09;;;;;;;8.63;8.00;;;9.40;22.70;;;;;;5056551;28;20419;-81
2024/02/14 03:46:35;;;;;;;9.70;8.50;;;9.20;22.60;;;;;;5059899;28;20244;-80
2024/02/14 03:49:01;;;;;;;9.43;8.90;;;9.00;23.30;;;;;;5057972;28;20437;-80
2024/02/14 03:51:30;;;;;;;9.93;9.10;;;8.80;23.20;;;;;;5058409;28;20454;-80
2024/02/14 03:54:11;;;;;;;8.77;8.37;;;8.80;23.70;;;;;;5061496;28;20415;-80
2024/02/14 03:56:37;;;;;;;9.63;9.03;;;8.70;24.00;;;;;;5062844;28;20498;-80
2024/02/14 03:59:05;;;;;;;9.30;8.87;;;8.70;24.40;;;;;;5055468;28;20944;-80
2024/02/14 04:01:31;;;;;;;9.50;8.80;;;8.80;24.20;;;;;;5058163;28;20199;-80
2024/02/14 04:03:56;;;;;;;9.40;8.90;;;8.90;24.20;;;;;;5060199;28;20411;-81
2024/02/14 04:06:22;;;;;;;8.97;8.47;;;9.20;23.40;;;;;;5071005;28;20204;-80
2024/02/14 04:08:49;;;;;;;9.20;8.70;;;9.30;23.50;;;;;;5069482;28;20198;-81
2024/02/14 04:11:14;;;;;;;10.20;9.60;;;9.40;23.20;;;;;;5071013;28;20603;-80
2024/02/14 04:13:40;;;;;;;8.43;7.90;;;9.50;23.10;;;;;;5070077;28;20430;-81
2024/02/14 04:16:06;;;;;;;8.50;8.00;;;9.60;22.80;;;;;;5075613;23;20674;-79
2024/02/14 04:18:31;;;;;;;9.07;8.50;;;9.80;23.00;;;;;;5042645;28;20439;-80
2024/02/14 04:20:57;;;;;;;9.03;8.50;;;9.90;22.40;;;;;;5058199;28;20194;-81
2024/02/14 04:23:24;;;;;;;9.00;8.50;;;10.10;21.20;;;;;;5057133;28;20286;-79
2024/02/14 04:25:50;;;;;;;8.80;8.30;;;10.10;21.10;;;;;;5055256;28;20202;-80
2024/02/14 04:28:15;;;;;;;9.30;8.90;;;10.10;20.80;;;;;;5056917;28;20442;-80
2024/02/14 04:30:41;;;;;;;9.40;8.90;;;10.20;20.20;;;;;;5057143;28;20267;-81
2024/02/14 04:33:08;;;;;;;8.27;7.93;;;10.30;19.70;;;;;;5056047;28;20180;-81
2024/02/14 04:35:33;;;;;;;8.63;8.23;;;10.50;19.40;;;;;;5056743;28;20430;-80
2024/02/14 04:37:59;;;;;;;9.00;8.50;;;10.60;19.10;;;;;;5056619;28;20502;-80
2024/02/14 04:40:24;;;;;;;9.17;8.50;;;10.70;18.70;;;;;;5056893;28;20671;-81
2024/02/14 04:42:50;;;;;;;8.57;8.17;;;10.80;18.60;;;;;;5055993;28;20176;-80
2024/02/14 04:45:15;;;;;;;8.03;7.70;;;10.80;18.50;;;;;;5055672;28;20184;-79
2024/02/14 04:47:42;;;;;;;8.90;8.50;;;10.70;19.00;;;;;;5055128;28;20219;-80
2024/02/14 04:50:08;;;;;;;8.90;8.33;;;10.70;18.70;;;;;;5056004;28;20179;-80
2024/02/14 04:52:33;;;;;;;7.70;7.40;;;10.60;18.50;;;;;;5057618;28;20430;-81
2024/02/14 04:54:59;;;;;;;9.43;8.90;;;10.60;18.20;;;;;;5056980;28;20961;-81
2024/02/14 04:57:25;;;;;;;7.80;7.33;;;10.70;18.20;;;;;;5057105;28;20634;-77
2024/02/14 04:59:50;;;;;;;8.00;7.50;;;10.70;17.50;;;;;;5058270;28;20183;-80
2024/02/14 05:02:16;;;;;;;7.80;7.40;;;10.70;17.40;;;;;;5057278;28;20178;-81
2024/02/14 05:04:41;;;;;;;9.10;8.50;;;10.70;17.70;;;;;;5057109;28;20243;-81
2024/02/14 05:07:07;;;;;;;8.50;8.00;;;10.50;17.30;;;;;;5056212;28;20238;-81
2024/02/14 05:09:33;;;;;;;9.03;8.33;;;10.50;17.60;;;;;;5056889;28;20572;-80
2024/02/14 05:11:58;;;;;;;8.10;7.70;;;10.40;17.90;;;;;;5058418;28;20430;-81
2024/02/14 05:14:24;;;;;;;9.17;8.57;;;10.30;17.70;;;;;;5058524;28;20199;-82
2024/02/14 05:16:49;;;;;;;8.33;7.90;;;10.30;18.30;;;;;;5056872;28;20222;-81
2024/02/14 05:19:15;;;;;;;9.50;8.97;;;10.40;18.50;;;;;;5057274;28;20210;-81
2024/02/14 05:21:40;;;;;;;9.27;8.63;;;10.20;18.10;;;;;;5059341;28;20230;-79
2024/02/14 05:24:06;;;;;;;9.23;8.67;;;10.10;18.80;;;;;;5073961;28;20191;-81
2024/02/14 05:26:32;;;;;;;9.30;8.60;;;10.10;18.60;;;;;;5065420;28;20215;-81
2024/02/14 05:28:58;;;;;;;9.10;8.70;;;10.00;18.90;;;;;;5067195;28;20195;-81
2024/02/14 05:31:24;;;;;;;9.53;9.10;;;10.00;19.20;;;;;;5059715;28;20466;-80
2024/02/14 05:33:50;;;;;;;8.50;8.13;;;10.00;19.70;;;;;;5058783;28;20499;-80
2024/02/14 05:36:15;;;;;;;8.43;8.03;;;10.00;19.40;;;;;;5060047;28;20702;-80
2024/02/14 05:38:41;;;;;;;9.20;8.60;;;10.20;19.30;;;;;;5058565;28;20184;-80
2024/02/14 05:41:07;;;;;;;8.57;8.03;;;10.30;19.10;;;;;;5059460;28;20192;-80
2024/02/14 05:43:33;;;;;;;7.80;7.30;;;10.50;18.50;;;;;;5058078;28;20191;-80
2024/02/14 05:46:00;;;;;;;7.47;6.97;;;10.50;17.70;;;;;;5058731;28;20504;-79
2024/02/14 05:48:27;;;;;;;7.30;6.90;;;10.40;17.90;;;;;;5057284;28;21031;-80
2024/02/14 05:50:52;;;;;;;9.07;8.57;;;10.50;18.10;;;;;;5050761;28;20450;-80
2024/02/14 05:53:18;;;;;;;8.00;7.57;;;10.60;18.10;;;;;;5058596;28;20426;-81
2024/02/14 05:55:43;;;;;;;7.77;7.40;;;10.50;18.00;;;;;;5058214;28;20227;-80
2024/02/14 05:58:09;;;;;;;8.60;8.10;;;10.50;18.30;;;;;;5056458;28;20294;-79
2024/02/14 06:00:35;;;;;;;9.03;8.00;;;10.40;18.30;;;;;;5056744;28;20191;-79
2024/02/14 06:03:01;;;;;;;8.60;8.20;;;10.30;18.30;;;;;;5057054;28;20525;-81
2024/02/14 06:05:27;;;;;;;9.57;8.93;;;10.00;18.40;;;;;;5056587;28;20275;-79
2024/02/14 06:07:53;;;;;;;8.90;8.40;;;9.80;19.60;;;;;;5057009;28;20963;-81
2024/02/14 06:10:18;;;;;;;8.40;7.90;;;9.80;19.70;;;;;;5058192;28;20184;-79
2024/02/14 06:12:44;;;;;;;8.57;8.17;;;9.50;20.20;;;;;;5056230;28;20286;-78
2024/02/14 06:15:10;;;;;;;8.60;8.10;;;9.50;20.50;;;;;;5056162;28;20195;-80
2024/02/14 06:17:35;;;;;;;8.80;8.30;;;9.60;20.60;;;;;;5057965;28;20275;-79
2024/02/14 06:20:05;;;;;;;8.73;8.23;;;9.80;20.80;;;;;;5060641;28;20180;-80
2024/02/14 06:22:32;;;;;;;8.80;8.23;;;9.90;20.60;;;;;;5061164;28;20250;-80
2024/02/14 06:24:57;;;;;;;9.20;8.73;;;10.00;19.70;;;;;;5059528;28;20929;-79
2024/02/14 06:27:23;;;;;;;8.20;7.70;;;10.10;19.30;;;;;;5059341;28;20446;-81
2024/02/14 06:29:49;;;;;;;7.20;6.80;;;10.00;18.90;;;;;;5059029;28;20191;-80
2024/02/14 06:32:14;;;;;;;8.10;7.40;;;10.00;18.90;;;;;;5058937;28;20192;-80
2024/02/14 06:34:40;;;;;;;7.90;7.30;;;10.00;18.70;;;;;;5058603;28;20183;-79
2024/02/14 06:37:06;;;;;;;8.73;8.20;;;9.90;19.40;;;;;;5057229;28;20207;-81
2024/02/14 06:39:31;;;;;;;7.60;7.20;;;9.70;20.00;;;;;;5056947;28;20180;-79
2024/02/14 06:41:57;;;;;;;8.30;7.90;;;9.60;21.00;;;;;;5058455;28;20180;-81
2024/02/14 06:44:23;;;;;;;8.40;7.80;;;9.50;20.70;;;;;;5059094;28;20555;-81
2024/02/14 06:46:48;;;;;;;8.73;8.13;;;9.50;20.50;;;;;;5059722;28;20695;-80
2024/02/14 06:49:16;;;;;;;8.13;7.73;;;9.60;20.60;;;;;;5060727;28;20441;-79
2024/02/14 06:51:41;;;;;;;8.10;7.60;;;9.60;20.20;;;;;;5059062;28;20191;-79
2024/02/14 06:54:07;;;;;;;7.30;7.00;;;9.70;20.10;;;;;;5062268;28;20504;-79
2024/02/14 06:56:33;;;;;;;7.77;7.40;;;9.80;19.90;;;;;;5065677;28;20212;-81
2024/02/14 06:58:59;;;;;;;8.27;7.97;;;10.00;18.90;;;;;;5057890;28;20426;-79
2024/02/14 07:01:26;;;;;;;7.10;6.70;;;10.00;19.40;;;;;;5072560;28;20176;-80
2024/02/14 07:03:53;;;;;;;8.63;8.23;;;10.10;18.90;;;;;;5074132;28;20433;-79
2024/02/14 07:06:18;;;;;;;8.23;7.73;;;10.20;18.20;;;;;;5057775;28;20505;-80
2024/02/14 07:08:48;;;;;;;8.90;8.30;;;10.20;18.50;;;;;;5056744;28;20926;-81
2024/02/14 07:11:15;;;;;;;8.50;8.10;;;10.30;18.20;;;;;;5061537;28;20279;-80
2024/02/14 07:13:41;;;;;;;7.23;6.83;;;10.40;18.60;;;;;;5058808;28;20929;-81
2024/02/14 07:16:06;;;;;;;7.67;7.27;;;10.50;18.40;;;;;;5056054;28;20470;-81
2024/02/14 07:18:33;;;;;;;7.43;7.03;;;10.60;18.10;;;;;;5060216;28;20548;-80
2024/02/14 07:20:59;;;;;;;7.40;6.70;;;10.60;18.10;;;;;;5060535;28;20663;-80
2024/02/14 07:23:26;;;;;;;7.73;7.13;;;10.70;18.20;;;;;;5059672;28;20476;-81
2024/02/14 07:25:51;;;;;;;8.63;7.93;;;10.80;18.00;;;;;;5057623;28;20199;-80
2024/02/14 07:28:17;;;;;;;8.50;7.90;;;10.80;17.90;;;;;;5052097;28;20455;-81
2024/02/14 07:30:43;;;;;;;8.00;7.50;;;10.80;17.90;;;;;;5056366;28;20195;-81
2024/02/14 07:33:09;;;;;;;8.57;7.73;;;10.80;18.00;;;;;;5059053;28;20255;-82
2024/02/14 07:35:38;;;;;;;7.70;7.03;;;10.80;18.60;;;;;;5059075;28;20468;-81
2024/02/14 07:38:03;;;;;;;7.67;7.17;;;10.80;18.60;;;;;;5050386;28;20200;-80
2024/02/14 07:40:30;;;;;;;8.10;7.53;;;10.80;18.90;;;;;;5057931;28;20435;-81
2024/02/14 07:42:57;;;;;;;8.17;7.77;;;10.60;18.20;;;;;;5058199;28;20554;-81
2024/02/14 07:45:22;;;;;;;8.80;8.23;;;10.70;18.80;;;;;;5058468;28;20518;-81
2024/02/14 07:47:49;;;;;;;7.90;7.40;;;10.70;18.60;;;;;;5058182;28;20969;-82
2024/02/14 07:50:16;;;;;;;7.57;7.07;;;10.70;18.40;;;;;;5056653;28;20184;-81
2024/02/14 07:52:43;;;;;;;8.40;7.77;;;10.80;19.00;;;;;;5057185;28;20472;-82
2024/02/14 07:55:12;;;;;;;7.93;7.50;;;10.80;18.10;;;;;;5056790;28;20442;-81
2024/02/14 07:57:38;;;;;;;7.40;6.93;;;10.80;18.40;;;;;;5056597;28;20497;-82
2024/02/14 08:00:04;;;;;;;7.27;6.97;;;11.00;18.70;;;;;;5057133;28;20511;-82
2024/02/14 08:02:30;;;;;;;8.90;8.40;;;11.00;18.80;;;;;;5057420;28;20184;-82
2024/02/14 08:04:57;;;;;;;8.30;7.83;;;11.00;18.40;;;;;;5059530;28;20434;-82
2024/02/14 08:07:22;;;;;;;9.00;8.30;;;11.00;18.60;;;;;;5059152;28;20203;-79
2024/02/14 08:09:48;;;;;;;9.90;8.93;;;11.10;19.20;;;;;;5058449;28;20461;-82
2024/02/14 08:12:13;;;;;;;10.10;8.00;;;11.10;18.70;;;;;;5064631;28;20573;-81
2024/02/14 08:14:39;;;;;;;8.57;7.90;;;11.10;18.90;;;;;;5057785;28;20195;-81
2024/02/14 08:17:04;;;;;;;8.13;7.40;;;11.20;18.30;;;;;;5055578;28;20208;-81
2024/02/14 08:19:31;;;;;;;7.90;7.50;;;11.30;18.60;;;;;;5056622;28;20204;-82
2024/02/14 08:21:59;;;;;;;7.43;7.03;;;11.30;18.10;;;;;;5054252;28;20532;-80
2024/02/14 08:24:26;;;;;;;7.70;7.10;;;11.40;18.30;;;;;;5057541;28;20643;-80
2024/02/14 08:26:51;;;;;;;9.20;8.43;;;11.40;18.30;;;;;;5056475;28;20454;-82
2024/02/14 08:29:18;;;;;;;9.33;8.63;;;11.30;17.90;;;;;;5056467;28;20437;-80
2024/02/14 08:31:43;;;;;;;8.93;8.33;;;11.30;18.40;;;;;;5058335;28;20234;-79
2024/02/14 08:34:09;;;;;;;10.53;9.63;;;11.10;18.30;;;;;;5056439;28;20949;-81
2024/02/14 08:36:40;;;;;;;9.37;8.77;;;11.10;19.20;;;;;;5055911;28;20204;-79
2024/02/14 08:39:07;;;;;;;9.87;8.83;;;11.00;18.80;;;;;;5055804;28;20723;-82
2024/02/14 08:41:32;;;;;;;10.23;9.23;;;11.00;18.70;;;;;;5056317;28;20438;-81
2024/02/14 08:43:58;;;;;;;9.27;8.40;;;11.00;18.80;;;;;;5058019;28;20480;-82
2024/02/14 08:46:25;;;;;;;9.23;8.60;;;11.10;18.90;;;;;;5056720;28;20225;-82
2024/02/14 08:48:51;;;;;;;9.23;8.33;;;11.10;19.20;;;;;;5055895;28;20692;-83
2024/02/14 08:51:20;;;;;;;7.73;7.33;;;11.10;19.50;;;;;;5058753;28;20498;-79
2024/02/14 08:53:46;;;;;;;7.07;6.47;;;11.20;19.10;;;;;;5059021;28;20433;-82
2024/02/14 08:56:12;;;;;;;6.50;6.10;;;11.20;18.20;;;;;;5060063;28;20981;-79
2024/02/14 08:58:40;;;;;;;7.20;6.87;;;11.10;18.00;;;;;;5068316;28;20211;-79
2024/02/14 09:01:07;;;;;;;7.20;6.80;;;11.10;18.20;;;;;;5058253;28;20945;-81
2024/02/14 09:03:35;;;;;;;6.83;6.43;;;11.10;18.30;;;;;;5061054;28;20410;-82
2024/02/14 09:06:03;;;;;;;6.83;6.40;;;11.10;18.10;;;;;;5060041;28;20533;-79
2024/02/14 09:08:30;;;;;;;6.50;6.20;;;11.00;18.80;;;;;;5062137;28;20453;-80
2024/02/14 09:10:56;;;;;;;6.53;6.23;;;11.00;18.70;;;;;;5062894;28;20433;-79
2024/02/14 09:13:21;;;;;;;6.87;6.57;;;11.10;19.30;;;;;;5061246;28;20434;-79
2024/02/14 09:15:48;;;;;;;7.00;6.50;;;11.10;19.00;;;;;;5061304;28;20203;-81
2024/02/14 09:18:15;;;;;;;7.27;6.80;;;11.20;19.10;;;;;;5060523;28;20287;-79
2024/02/14 09:20:40;;;;;;;8.20;7.80;;;11.30;19.80;;;;;;5060965;28;20434;-81
2024/02/14 09:23:06;;;;;;;6.63;6.23;;;11.50;19.70;;;;;;5060882;28;20460;-81
2024/02/14 09:25:31;;;;;;;7.43;6.83;;;11.50;18.40;;;;;;5059339;28;20184;-80
2024/02/14 09:27:57;;;;;;;7.50;7.10;;;11.50;18.40;;;;;;5060334;28;20600;-81
2024/02/14 09:30:22;;;;;;;6.43;6.13;;;11.30;18.80;;;;;;5061732;28;20180;-80
2024/02/14 09:32:50;;;;;;;7.43;7.03;;;11.50;19.00;;;;;;5062002;28;20233;-79
2024/02/14 09:35:16;;;;;;;7.23;6.80;;;11.50;18.80;;;;;;5061728;28;20190;-81
2024/02/14 09:37:41;;;;;;;8.17;7.00;;;11.60;18.50;;;;;;5060974;28;20470;-81
2024/02/14 09:40:07;;;;;;;7.60;7.30;;;11.70;18.70;;;;;;5061831;28;20186;-79
2024/02/14 09:42:45;;;;;;;7.03;6.63;;;11.80;18.60;;;;;;5060363;28;20569;-80
2024/02/14 09:45:11;;;;;;;7.97;7.47;;;11.80;18.40;;;;;;5059188;28;20449;-80
2024/02/14 09:47:38;;;;;;;7.90;7.50;;;11.80;18.30;;;;;;5059279;28;20457;-81
2024/02/14 09:50:07;;;;;;;7.23;6.93;;;11.80;18.70;;;;;;5059935;28;20797;-79
2024/02/14 09:52:33;;;;;;;7.00;6.60;;;11.70;18.70;;;;;;5062125;28;20430;-80
2024/02/14 09:55:02;;;;;;;6.93;6.73;;;11.80;19.20;;;;;;5060148;28;20445;-80
2024/02/14 09:57:29;;;;;;;7.47;7.17;;;11.70;19.20;;;;;;5061549;28;20474;-80
2024/02/14 09:59:56;;;;;;;7.40;7.00;;;11.70;19.50;;;;;;5064241;28;20422;-81
2024/02/14 10:02:22;;;;;;;7.17;6.87;;;11.70;19.40;;;;;;5057208;28;20454;-81
2024/02/14 10:04:48;;;;;;;6.70;6.40;;;11.80;19.70;;;;;;5062104;28;20422;-80
2024/02/14 10:07:13;;;;;;;7.20;6.90;;;11.80;19.60;;;;;;5059169;28;20299;-79
2024/02/14 10:09:43;;;;;;;7.40;6.90;;;11.80;19.60;;;;;;5057280;28;20457;-80
2024/02/14 10:12:09;;;;;;;6.43;6.07;;;11.90;19.70;;;;;;5058152;28;20222;-80
2024/02/14 10:14:36;;;;;;;6.33;6.10;;;11.90;19.90;;;;;;5060011;28;20535;-79
2024/02/14 10:17:05;;;;;;;7.50;6.90;;;11.90;20.40;;;;;;5071584;22;20521;-83
2024/02/14 10:19:30;;;;;;;7.10;6.60;;;11.90;20.60;;;;;;5054219;28;20430;-83
2024/02/14 10:22:00;;;;;;;7.47;7.00;;;12.00;20.80;;;;;;5062517;28;20968;-83
2024/02/14 10:24:27;;;;;;;7.27;6.87;;;12.00;21.20;;;;;;5061303;28;20180;-84
2024/02/14 10:26:53;;;;;;;6.57;6.27;;;11.90;21.90;;;;;;5061074;28;21027;-84
2024/02/14 10:29:22;;;;;;;6.53;6.33;;;12.00;22.10;;;;;;5062578;28;20441;-84
2024/02/14 10:31:48;;;;;;;6.70;6.40;;;12.00;22.10;;;;;;5062645;28;20442;-84
2024/02/14 10:34:14;;;;;;;7.57;6.97;;;12.00;22.10;;;;;;5062516;28;20515;-84
2024/02/14 10:36:42;;;;;;;6.83;6.53;;;12.10;22.60;;;;;;5062599;28;20679;-84
2024/02/14 10:39:10;;;;;;;6.53;6.33;;;12.20;22.60;;;;;;5061107;28;20931;-83
2024/02/14 10:41:36;;;;;;;6.93;6.53;;;12.20;22.60;;;;;;5063174;28;20427;-84
2024/02/14 10:44:07;;;;;;;6.77;6.20;;;12.20;22.70;;;;;;5060899;28;20435;-83
2024/02/14 10:46:39;;;;;;;6.63;6.33;;;12.30;22.50;;;;;;5061125;28;20565;-84
2024/02/14 10:49:07;;;;;;;6.97;6.57;;;12.40;22.40;;;;;;5061594;28;20435;-84
2024/02/14 10:51:38;;;;;;;6.70;6.40;;;12.40;22.40;;;;;;5066969;28;20426;-84
2024/02/14 10:54:10;;;;;;;6.20;5.90;;;12.40;22.50;;;;;;5066151;28;20509;-85
2024/02/14 10:56:40;;;;;;;7.13;6.63;;;12.30;22.40;;;;;;5061004;28;20568;-84
2024/02/14 10:59:11;;;;;;;6.60;6.20;;;12.40;22.60;;;;;;5061704;28;20870;-84
2024/02/14 11:02:00;;;;;;;7.00;6.60;;;12.40;22.60;;;;;;5062309;28;20441;-84
2024/02/14 11:05:10;;;;;;;;;;;;;;;;;;;;;
2024/02/14 11:07:52;;;;;;;6.00;5.50;;;12.50;23.40;;;;;;5061778;28;20525;-84
2024/02/14 11:10:28;;;;;;;5.63;5.43;;;12.50;23.50;;;;;;5052272;28;20437;-84
2024/02/14 11:13:01;;;;;;;6.07;5.57;;;12.60;23.60;;;;;;5060580;28;20434;-84
2024/02/14 11:15:30;;;;;;;6.37;6.17;;;12.70;23.60;;;;;;5058745;28;20484;-83
2024/02/14 11:18:04;;;;;;;6.40;6.00;;;12.70;23.40;;;;;;5059753;28;20472;-83
2024/02/14 11:20:35;;;;;;;6.10;5.70;;;12.70;24.10;;;;;;5060742;28;20419;-84
2024/02/14 11:23:04;;;;;;;6.57;6.23;;;12.60;24.40;;;;;;5060042;28;20991;-84
2024/02/14 11:25:37;;;;;;;6.77;6.47;;;12.70;24.60;;;;;;5062932;28;20476;-83
2024/02/14 11:28:16;;;;;;;6.47;6.17;;;12.70;24.30;;;;;;5063177;28;20454;-82
2024/02/14 11:30:42;;;;;;;6.30;6.00;;;12.80;25.00;;;;;;5062895;28;20449;-83
2024/02/14 11:33:28;;;;;;;6.00;5.70;;;12.70;25.00;;;;;;5061868;28;20426;-83
2024/02/14 11:35:55;;;;;;;6.60;6.40;;;12.70;25.00;;;;;;5060888;28;20430;-84
2024/02/14 11:38:25;;;;;;;6.40;6.20;;;12.80;25.10;;;;;;5055828;28;20434;-84
2024/02/14 11:40:59;;;;;;;6.43;6.13;;;12.80;25.00;;;;;;5059880;28;20430;-83
2024/02/14 11:44:02;;;;;;;6.17;5.97;;;12.90;25.20;;;;;;5054371;28;20422;-84
2024/02/14 11:46:33;;;;;;;7.30;6.90;;;13.10;24.60;;;;;;5051820;28;20453;-84
2024/02/14 11:49:04;;;;;;;6.87;6.67;;;13.00;24.50;;;;;;5056237;28;20446;-84
2024/02/14 11:51:30;;;;;;;6.90;6.57;;;13.00;24.60;;;;;;5057323;28;20422;-83
2024/02/14 11:54:04;;;;;;;6.60;6.27;;;12.90;24.80;;;;;;5057445;28;20426;-84
2024/02/14 11:56:35;;;;;;;6.83;6.37;;;12.80;25.10;;;;;;5040147;28;20466;-84
2024/02/14 11:59:05;;;;;;;8.10;7.70;;;12.80;25.00;;;;;;5056945;28;20457;-83
2024/02/14 12:01:31;;;;;;;6.40;6.20;;;12.80;25.10;;;;;;5059930;28;20414;-84
2024/02/14 12:04:01;;;;;;;6.97;6.67;;;12.80;25.10;;;;;;5058246;28;20419;-82
2024/02/14 12:06:34;;;;;;;6.40;6.20;;;12.80;25.10;;;;;;5058518;28;20804;-84
2024/02/14 12:09:05;;;;;;;7.80;7.33;;;13.00;24.80;;;;;;5057932;28;20437;-83
2024/02/14 12:11:37;;;;;;;6.90;6.70;;;13.00;24.60;;;;;;5059751;28;20998;-83
2024/02/14 12:14:03;;;;;;;7.00;6.70;;;13.10;24.60;;;;;;5060109;28;20513;-83
2024/02/14 12:16:29;;;;;;;6.73;6.53;;;13.10;24.40;;;;;;5058368;28;20470;-84
2024/02/14 12:19:28;;;;;;;6.47;6.27;;;13.10;24.30;;;;;;5057131;28;20442;-81
2024/02/14 12:21:56;;;;;;;6.47;5.97;;;13.20;24.40;;;;;;5022528;28;20418;-82
2024/02/14 12:24:23;;;;;;;7.63;7.13;;;13.30;24.20;;;;;;5055661;28;20406;-81
2024/02/14 12:26:52;;;;;;;6.70;6.40;;;13.40;24.20;;;;;;5054614;28;20441;-83
2024/02/14 12:29:19;;;;;;;6.67;6.37;;;13.50;24.10;;;;;;5053846;28;20878;-82
2024/02/14 12:31:44;;;;;;;6.67;6.47;;;13.60;23.60;;;;;;5065030;28;20419;-80
2024/02/14 12:34:11;;;;;;;7.13;6.93;;;13.60;23.60;;;;;;5071868;28;20434;-80
2024/02/14 12:36:38;;;;;;;6.70;6.50;;;13.60;23.40;;;;;;5072138;28;20223;-82
2024/02/14 12:39:04;;;;;;;7.07;6.77;;;13.70;23.20;;;;;;5073477;28;20422;-81
2024/02/14 12:41:30;;;;;;;6.90;6.63;;;13.70;23.20;;;;;;5064956;28;20427;-82
2024/02/14 12:43:57;;;;;;;6.53;6.33;;;13.60;23.30;;;;;;5059070;28;20494;-80
2024/02/14 12:46:22;;;;;;;6.60;6.30;;;13.70;23.30;;;;;;5056150;28;20498;-81
2024/02/14 12:48:48;;;;;;;6.80;6.60;;;13.60;23.30;;;;;;5053881;28;20442;-80
2024/02/14 12:51:14;;;;;;;6.47;6.27;;;13.60;23.40;;;;;;5058123;28;20259;-82
2024/02/14 12:53:40;;;;;;;7.17;6.77;;;13.70;23.60;;;;;;5058995;28;20179;-81
2024/02/14 12:56:07;;;;;;;7.03;6.53;;;13.70;23.30;;;;;;5057139;28;20534;-81
2024/02/14 12:58:32;;;;;;;7.53;7.23;;;13.70;23.70;;;;;;5055224;28;20490;-82